Time;durP1;ratioP1;P1;durP2;ratioP2;P2;SDS_P1;SDS_P2;PMS_P1;PMS_P2;Temp;Humidity;BMP_temperature;BMP_pressure;BME280_temperature;BME280_humidity;BME280_pressure;Samples;Min_cycle;Max_cycle;Signal;HPM_P1;HPM_P2
2022/05/03 00:00:57;;;;;;;3.33;2.08;;;;;;;;;;5269515;28;20537;-67
2022/05/03 00:03:33;;;;;;;3.40;2.40;;;;;;;;;;5280010;28;20033;-66
2022/05/03 00:06:13;;;;;;;4.55;2.80;;;;;;;;;;5281192;28;20021;-67
2022/05/03 00:08:50;;;;;;;2.85;2.15;;;;;;;;;;5280395;28;20029;-67
2022/05/03 00:11:32;;;;;;;4.38;2.28;;;;;;;;;;5279672;28;20372;-65
2022/05/03 00:14:06;;;;;;;4.53;2.40;;;;;;;;;;5283078;28;20051;-66
2022/05/03 00:16:38;;;;;;;5.53;2.33;;;;;;;;;;5283403;28;20031;-66
2022/05/03 00:19:10;;;;;;;5.72;2.10;;;;;;;;;;5285268;28;20017;-66
2022/05/03 00:21:42;;;;;;;5.50;2.50;;;;;;;;;;5284334;28;20042;-65
2022/05/03 00:24:13;;;;;;;2.90;2.15;;;;;;;;;;5284381;28;20021;-66
2022/05/03 00:26:45;;;;;;;2.85;1.92;;;;;;;;;;5284388;28;20440;-66
2022/05/03 00:29:16;;;;;;;3.95;2.10;;;;;;;;;;5284877;28;20096;-66
2022/05/03 00:31:48;;;;;;;4.32;1.85;;;;;;;;;;5283547;28;20024;-66
2022/05/03 00:34:20;;;;;;;3.17;2.33;;;;;;;;;;5284171;28;20031;-66
2022/05/03 00:36:52;;;;;;;3.22;2.35;;;;;;;;;;5284483;28;20017;-67
2022/05/03 00:39:23;;;;;;;6.25;2.20;;;;;;;;;;5283379;28;20104;-67
2022/05/03 00:42:08;;;;;;;3.17;2.15;;;;;;;;;;5284830;28;20024;-67
2022/05/03 00:45:01;;;;;;;4.18;2.28;;;;;;;;;;5283201;28;20271;-68
2022/05/03 00:47:39;;;;;;;3.15;2.20;;;;;;;;;;5283759;28;20031;-67
2022/05/03 00:50:14;;;;;;;4.03;2.38;;;;;;;;;;5284396;28;20050;-67
2022/05/03 00:53:00;;;;;;;3.05;1.75;;;;;;;;;;5283011;28;20017;-67
2022/05/03 00:55:31;;;;;;;3.63;1.73;;;;;;;;;;5283804;28;20033;-67
2022/05/03 00:58:21;;;;;;;2.88;2.30;;;;;;;;;;5284379;28;20025;-67
2022/05/03 01:00:58;;;;;;;2.53;1.80;;;;;;;;;;5283535;28;20380;-67
2022/05/03 01:03:42;;;;;;;2.97;2.35;;;;;;;;;;5283407;28;20021;-66
2022/05/03 01:06:17;;;;;;;3.50;2.28;;;;;;;;;;5283358;28;20107;-67
2022/05/03 01:09:07;;;;;;;2.90;1.98;;;;;;;;;;5283392;28;20017;-67
2022/05/03 01:12:04;;;;;;;3.53;2.00;;;;;;;;;;5283308;28;20028;-66
2022/05/03 01:14:48;;;;;;;6.10;2.70;;;;;;;;;;5282284;28;20051;-66
2022/05/03 01:17:30;;;;;;;3.40;2.22;;;;;;;;;;5283561;28;20025;-66
2022/05/03 01:20:08;;;;;;;4.85;2.30;;;;;;;;;;5282823;28;20120;-66
2022/05/03 01:22:48;;;;;;;4.07;2.73;;;;;;;;;;5283314;28;20020;-65
2022/05/03 01:25:19;;;;;;;3.15;2.50;;;;;;;;;;5283024;28;20764;-66
2022/05/03 01:28:19;;;;;;;7.30;2.42;;;;;;;;;;5282455;28;20028;-66
2022/05/03 01:30:52;;;;;;;6.22;2.53;;;;;;;;;;5278238;28;20777;-66
2022/05/03 01:33:31;;;;;;;3.42;2.15;;;;;;;;;;5283150;28;20139;-67
2022/05/03 01:36:02;;;;;;;4.50;2.70;;;;;;;;;;5282759;28;20036;-67
2022/05/03 01:38:43;;;;;;;3.63;2.83;;;;;;;;;;5282715;28;20155;-67
2022/05/03 01:41:34;;;;;;;4.88;2.92;;;;;;;;;;5282532;28;20071;-67
2022/05/03 01:44:11;;;;;;;3.00;2.45;;;;;;;;;;5283308;28;20095;-66
2022/05/03 01:46:42;;;;;;;3.83;2.53;;;;;;;;;;5282711;28;20048;-66
2022/05/03 01:52:17;;;;;;;5.78;2.40;;;;;;;;;;5283184;28;20052;-67
2022/05/03 01:54:57;;;;;;;4.22;2.45;;;;;;;;;;5282395;28;20040;-67
2022/05/03 01:57:37;;;;;;;5.13;2.67;;;;;;;;;;5282105;28;20356;-66
2022/05/03 02:00:09;;;;;;;7.30;2.67;;;;;;;;;;5283088;28;20025;-66
2022/05/03 02:03:07;;;;;;;3.65;2.42;;;;;;;;;;5281350;28;20059;-66
2022/05/03 02:05:38;;;;;;;4.80;2.17;;;;;;;;;;5280827;28;20043;-67
2022/05/03 02:08:10;;;;;;;4.18;2.13;;;;;;;;;;5282957;28;20044;-67
2022/05/03 02:10:47;;;;;;;3.22;2.45;;;;;;;;;;5281394;28;20267;-67
2022/05/03 02:14:43;;;;;;;3.10;2.08;;;;;;;;;;5282321;28;20045;-67
2022/05/03 02:16:29;;;;;;;3.80;2.42;;;;;;;;;;5281007;28;20045;-67
2022/05/03 02:19:24;;;;;;;3.20;2.00;;;;;;;;;;5282753;28;20013;-66
2022/05/03 02:22:14;;;;;;;4.65;1.88;;;;;;;;;;5282569;28;20025;-66
2022/05/03 02:24:50;;;;;;;4.07;2.28;;;;;;;;;;5280842;28;20142;-67
2022/05/03 02:27:23;;;;;;;3.40;2.38;;;;;;;;;;5281884;28;20021;-66
2022/05/03 02:29:56;;;;;;;3.63;1.80;;;;;;;;;;5282346;28;20021;-66
2022/05/03 02:32:33;;;;;;;3.53;2.17;;;;;;;;;;5280601;28;20020;-66
2022/05/03 02:35:05;;;;;;;3.92;2.08;;;;;;;;;;5281570;28;20101;-66
2022/05/03 02:37:42;;;;;;;4.25;2.05;;;;;;;;;;5280648;28;20019;-66
2022/05/03 02:40:15;;;;;;;4.90;2.80;;;;;;;;;;5282338;28;20020;-66
2022/05/03 02:42:47;;;;;;;3.78;2.65;;;;;;;;;;5281559;28;20107;-67
2022/05/03 02:45:18;;;;;;;13.00;2.55;;;;;;;;;;5281148;28;20039;-67
2022/05/03 02:48:08;;;;;;;4.15;1.95;;;;;;;;;;5281921;28;20036;-67
2022/05/03 02:50:52;;;;;;;2.60;2.05;;;;;;;;;;5281344;28;20020;-67
2022/05/03 02:53:32;;;;;;;2.80;2.15;;;;;;;;;;5280559;28;20029;-66
2022/05/03 02:56:03;;;;;;;;;;;;;;;;;;5282336;28;20025;-66
2022/05/03 02:58:44;;;;;;;4.72;2.15;;;;;;;;;;5280645;28;19942;-66
2022/05/03 03:04:36;;;;;;;3.80;2.15;;;;;;;;;;5281469;28;20036;-67
2022/05/03 03:07:10;;;;;;;2.90;1.88;;;;;;;;;;5280782;28;20082;-66
2022/05/03 03:09:43;;;;;;;3.78;2.50;;;;;;;;;;5281292;28;20090;-67
2022/05/03 03:12:26;;;;;;;3.30;1.95;;;;;;;;;;5281742;28;20494;-67
2022/05/03 03:15:07;;;;;;;3.03;1.92;;;;;;;;;;5281848;28;20376;-67
2022/05/03 03:17:40;;;;;;;4.85;2.05;;;;;;;;;;5281085;28;20445;-67
2022/05/03 03:20:12;;;;;;;3.40;1.70;;;;;;;;;;5280903;28;20028;-67
2022/05/03 03:22:45;;;;;;;4.72;2.33;;;;;;;;;;5281121;28;20025;-66
2022/05/03 03:25:17;;;;;;;3.22;2.10;;;;;;;;;;5281684;28;20052;-66
2022/05/03 03:27:49;;;;;;;3.35;1.80;;;;;;;;;;5280363;28;20021;-68
2022/05/03 03:30:21;;;;;;;3.95;2.58;;;;;;;;;;5281413;28;20051;-67
2022/05/03 03:32:53;;;;;;;3.00;2.00;;;;;;;;;;5281426;28;20087;-67
2022/05/03 03:35:25;;;;;;;3.22;2.47;;;;;;;;;;5279435;28;20476;-67
2022/05/03 03:38:01;;;;;;;3.72;1.98;;;;;;;;;;5281142;28;20399;-67
2022/05/03 03:40:32;;;;;;;3.53;2.03;;;;;;;;;;5280073;28;20375;-66
2022/05/03 03:43:03;;;;;;;5.20;2.95;;;;;;;;;;5281457;28;20024;-66
2022/05/03 03:45:34;;;;;;;4.68;2.60;;;;;;;;;;5280962;28;20070;-67
2022/05/03 03:48:06;;;;;;;3.25;2.33;;;;;;;;;;5283351;28;20017;-66
2022/05/03 03:50:37;;;;;;;3.47;2.45;;;;;;;;;;5285049;28;20037;-66
2022/05/03 03:53:09;;;;;;;4.45;2.22;;;;;;;;;;5285627;28;20047;-67
2022/05/03 03:55:40;;;;;;;4.88;2.15;;;;;;;;;;5284119;28;20120;-67
2022/05/03 03:58:12;;;;;;;3.85;2.53;;;;;;;;;;5285417;28;20119;-67
2022/05/03 04:00:44;;;;;;;4.90;2.00;;;;;;;;;;5284795;28;20091;-66
2022/05/03 04:03:16;;;;;;;3.45;2.40;;;;;;;;;;5284441;28;20075;-66
2022/05/03 04:05:47;;;;;;;6.32;2.17;;;;;;;;;;5284579;28;20025;-66
2022/05/03 04:08:18;;;;;;;4.93;2.63;;;;;;;;;;5284900;28;20024;-67
2022/05/03 04:10:49;;;;;;;3.33;2.83;;;;;;;;;;5284040;28;20012;-67
2022/05/03 04:13:20;;;;;;;3.33;2.50;;;;;;;;;;5284838;28;20135;-67
2022/05/03 04:15:52;;;;;;;4.13;2.85;;;;;;;;;;5283881;28;20367;-66
2022/05/03 04:18:44;;;;;;;3.92;2.42;;;;;;;;;;5284469;28;20024;-66
2022/05/03 04:21:15;;;;;;;4.38;2.67;;;;;;;;;;5284714;28;20040;-67
2022/05/03 04:23:47;;;;;;;10.43;3.00;;;;;;;;;;5283740;28;20331;-67
2022/05/03 04:26:19;;;;;;;7.47;2.70;;;;;;;;;;5284655;28;20479;-66
2022/05/03 04:28:50;;;;;;;7.15;2.67;;;;;;;;;;5284623;28;20066;-67
2022/05/03 04:31:23;;;;;;;12.28;2.84;;;;;;;;;;5283460;28;20048;-66
2022/05/03 04:33:55;;;;;;;7.18;2.40;;;;;;;;;;5284674;28;20044;-66
2022/05/03 04:36:26;;;;;;;7.38;3.55;;;;;;;;;;5284178;28;20067;-67
2022/05/03 04:38:57;;;;;;;9.18;3.38;;;;;;;;;;5283909;28;20020;-67
2022/05/03 04:41:28;;;;;;;7.60;3.08;;;;;;;;;;5283904;28;20019;-67
2022/05/03 04:43:59;;;;;;;6.47;3.50;;;;;;;;;;5283609;28;20036;-66
2022/05/03 04:46:31;;;;;;;8.75;3.70;;;;;;;;;;5284026;28;20028;-66
2022/05/03 04:49:02;;;;;;;6.07;3.70;;;;;;;;;;5284515;28;20391;-66
2022/05/03 04:51:33;;;;;;;6.48;3.68;;;;;;;;;;5283013;28;20263;-66
2022/05/03 04:54:04;;;;;;;5.75;3.40;;;;;;;;;;5284254;28;20107;-66
2022/05/03 04:56:35;;;;;;;10.50;3.08;;;;;;;;;;5283478;28;20533;-66
2022/05/03 04:59:07;;;;;;;7.00;3.72;;;;;;;;;;5282747;28;20038;-66
2022/05/03 05:01:38;;;;;;;8.82;3.50;;;;;;;;;;5283433;28;20040;-66
2022/05/03 05:04:09;;;;;;;7.12;3.16;;;;;;;;;;5284070;28;20016;-66
2022/05/03 05:06:40;;;;;;;7.95;4.20;;;;;;;;;;5282677;28;20024;-66
2022/05/03 05:09:11;;;;;;;9.20;3.55;;;;;;;;;;5284002;28;20263;-66
2022/05/03 05:11:42;;;;;;;8.10;3.40;;;;;;;;;;5283519;28;20180;-67
2022/05/03 05:14:13;;;;;;;11.40;4.15;;;;;;;;;;5283061;28;20033;-65
2022/05/03 05:16:45;;;;;;;9.58;3.44;;;;;;;;;;5283390;28;20052;-66
2022/05/03 05:19:16;;;;;;;6.68;4.07;;;;;;;;;;5283076;28;20028;-66
2022/05/03 05:21:47;;;;;;;7.28;3.60;;;;;;;;;;5283108;28;20024;-67
2022/05/03 05:24:18;;;;;;;4.32;3.08;;;;;;;;;;5283565;28;20036;-66
2022/05/03 05:26:49;;;;;;;5.65;4.18;;;;;;;;;;5282632;28;20074;-67
2022/05/03 05:29:21;;;;;;;10.60;4.70;;;;;;;;;;5283555;28;20274;-67
2022/05/03 05:31:52;;;;;;;9.13;3.65;;;;;;;;;;5283322;28;20016;-67
2022/05/03 05:34:23;;;;;;;5.66;4.16;;;;;;;;;;5282073;28;20464;-67
2022/05/03 05:36:54;;;;;;;5.45;4.50;;;;;;;;;;5283516;28;20020;-67
2022/05/03 05:39:25;;;;;;;4.65;4.00;;;;;;;;;;5282939;28;20549;-67
2022/05/03 05:41:59;;;;;;;8.50;4.07;;;;;;;;;;5282641;28;20278;-67
2022/05/03 05:44:30;;;;;;;9.20;4.55;;;;;;;;;;5282752;28;20036;-67
2022/05/03 05:47:01;;;;;;;7.00;4.25;;;;;;;;;;5283332;28;20016;-67
2022/05/03 05:49:32;;;;;;;7.18;4.28;;;;;;;;;;5282056;28;20066;-67
2022/05/03 05:54:53;;;;;;;7.00;4.22;;;;;;;;;;5282420;28;20080;-66
2022/05/03 05:57:24;;;;;;;5.72;4.15;;;;;;;;;;5282713;28;20032;-67
2022/05/03 05:59:56;;;;;;;7.28;4.32;;;;;;;;;;5282917;28;20043;-67
2022/05/03 06:02:28;;;;;;;8.40;4.60;;;;;;;;;;5281679;28;20757;-67
2022/05/03 06:04:59;;;;;;;6.60;4.25;;;;;;;;;;5283002;28;20104;-66
2022/05/03 06:07:30;;;;;;;4.65;3.83;;;;;;;;;;5282146;28;20590;-66
2022/05/03 06:10:02;;;;;;;7.63;4.18;;;;;;;;;;5282103;28;20267;-67
2022/05/03 06:12:33;;;;;;;8.10;5.38;;;;;;;;;;5282010;28;20013;-67
2022/05/03 06:15:05;;;;;;;7.28;4.05;;;;;;;;;;5282670;28;20020;-66
2022/05/03 06:17:36;;;;;;;9.02;4.20;;;;;;;;;;5281006;28;20027;-66
2022/05/03 06:20:10;;;;;;;6.75;4.03;;;;;;;;;;5282531;28;20123;-67
2022/05/03 06:22:41;;;;;;;6.07;4.13;;;;;;;;;;5281144;28;20391;-66
2022/05/03 06:25:13;;;;;;;4.75;3.75;;;;;;;;;;5282370;28;20020;-65
2022/05/03 06:27:44;;;;;;;7.18;3.05;;;;;;;;;;5281728;28;20423;-66
2022/05/03 06:30:15;;;;;;;6.03;3.28;;;;;;;;;;5281435;28;20038;-66
2022/05/03 06:32:46;;;;;;;5.35;2.50;;;;;;;;;;5281818;28;20258;-66
2022/05/03 06:35:17;;;;;;;7.90;2.92;;;;;;;;;;5282277;28;20295;-66
2022/05/03 06:37:49;;;;;;;3.40;2.45;;;;;;;;;;5280488;28;20044;-65
2022/05/03 06:40:20;;;;;;;6.65;3.45;;;;;;;;;;5281715;28;20031;-66
2022/05/03 06:42:51;;;;;;;5.78;3.03;;;;;;;;;;5281769;28;20349;-66
2022/05/03 06:45:23;;;;;;;5.00;3.05;;;;;;;;;;5281010;28;20020;-67
2022/05/03 06:47:54;;;;;;;6.25;3.50;;;;;;;;;;5282389;28;20032;-67
2022/05/03 06:50:29;;;;;;;8.18;3.38;;;;;;;;;;5280713;28;20100;-67
2022/05/03 06:53:00;;;;;;;4.72;2.75;;;;;;;;;;5281928;28;20095;-67
2022/05/03 06:55:31;;;;;;;4.80;1.58;;;;;;;;;;5281227;28;20135;-68
2022/05/03 06:58:03;;;;;;;2.25;1.52;;;;;;;;;;5281213;28;20270;-68
2022/05/03 07:00:34;;;;;;;4.75;1.63;;;;;;;;;;5281187;28;20281;-67
2022/05/03 07:03:05;;;;;;;5.15;1.70;;;;;;;;;;5281479;28;20025;-67
2022/05/03 07:05:36;;;;;;;4.68;2.28;;;;;;;;;;5280287;28;20676;-67
2022/05/03 07:08:08;;;;;;;3.97;1.35;;;;;;;;;;5282072;28;20290;-68
2022/05/03 07:10:42;;;;;;;6.20;1.67;;;;;;;;;;5281308;28;20272;-68
2022/05/03 07:13:14;;;;;;;4.18;1.70;;;;;;;;;;5280799;28;20045;-67
2022/05/03 07:15:45;;;;;;;5.38;1.60;;;;;;;;;;5281108;28;20036;-67
2022/05/03 07:23:57;;;;;;;1.85;0.85;;;;;;;;;;5281910;28;20040;-67
2022/05/03 07:26:28;;;;;;;3.67;1.13;;;;;;;;;;5280340;28;20016;-67
2022/05/03 07:28:59;;;;;;;2.33;1.02;;;;;;;;;;5281592;28;20587;-67
2022/05/03 07:31:30;;;;;;;5.78;0.90;;;;;;;;;;5281241;28;20316;-67
2022/05/03 07:34:01;;;;;;;3.33;0.80;;;;;;;;;;5281062;28;20297;-67
2022/05/03 07:36:33;;;;;;;3.27;1.10;;;;;;;;;;5281333;28;20043;-67
2022/05/03 07:39:04;;;;;;;3.72;0.93;;;;;;;;;;5281350;28;20266;-67
2022/05/03 07:41:35;;;;;;;1.83;0.80;;;;;;;;;;5280468;28;20023;-66
2022/05/03 07:44:06;;;;;;;3.55;0.70;;;;;;;;;;5281672;28;20047;-66
2022/05/03 07:46:38;;;;;;;5.30;0.98;;;;;;;;;;5280513;28;20016;-67
2022/05/03 07:49:10;;;;;;;5.63;0.83;;;;;;;;;;5280888;28;20274;-67
2022/05/03 07:51:44;;;;;;;5.40;1.38;;;;;;;;;;5280754;28;20359;-67
2022/05/03 07:54:15;;;;;;;4.25;0.85;;;;;;;;;;5280981;28;20120;-67
2022/05/03 07:56:46;;;;;;;2.22;0.85;;;;;;;;;;5280963;28;20051;-67
2022/05/03 07:59:18;;;;;;;1.80;0.95;;;;;;;;;;5281454;28;20263;-67
2022/05/03 08:01:49;;;;;;;2.38;1.02;;;;;;;;;;5280465;28;20265;-67
2022/05/03 08:04:21;;;;;;;2.72;1.10;;;;;;;;;;5280852;28;20017;-67
2022/05/03 08:06:52;;;;;;;2.28;1.30;;;;;;;;;;5281439;28;20302;-67
2022/05/03 08:09:23;;;;;;;5.22;1.23;;;;;;;;;;5280016;28;20013;-68
2022/05/03 08:11:55;;;;;;;3.42;1.30;;;;;;;;;;5281185;28;20021;-68
2022/05/03 08:14:28;;;;;;;6.75;1.40;;;;;;;;;;5280212;28;20633;-67
2022/05/03 08:17:00;;;;;;;4.93;1.20;;;;;;;;;;5280646;28;20021;-67
2022/05/03 08:19:31;;;;;;;3.08;1.40;;;;;;;;;;5280504;28;20028;-67
2022/05/03 08:22:02;;;;;;;4.82;1.52;;;;;;;;;;5279943;28;20021;-67
2022/05/03 08:24:33;;;;;;;4.00;1.20;;;;;;;;;;5280470;28;20024;-67
2022/05/03 08:27:04;;;;;;;3.47;1.50;;;;;;;;;;5281033;28;20017;-67
2022/05/03 08:29:36;;;;;;;3.50;1.60;;;;;;;;;;5279928;28;20290;-67
2022/05/03 08:32:08;;;;;;;2.90;1.70;;;;;;;;;;5281055;28;20266;-68
2022/05/03 08:34:39;;;;;;;4.10;1.38;;;;;;;;;;5282340;28;20055;-68
2022/05/03 08:42:50;;;;;;;4.47;2.05;;;;;;;;;;5279010;28;20033;-67
2022/05/03 08:45:22;;;;;;;6.00;2.05;;;;;;;;;;5272461;28;20467;-67
2022/05/03 08:47:56;;;;;;;5.65;2.00;;;;;;;;;;5266921;28;20689;-67
2022/05/03 08:50:29;;;;;;;2.63;1.67;;;;;;;;;;5261411;28;20032;-66
2022/05/03 08:53:01;;;;;;;4.30;2.03;;;;;;;;;;5261938;28;20462;-66
2022/05/03 08:55:33;;;;;;;4.43;2.38;;;;;;;;;;5261794;28;20091;-66
2022/05/03 08:58:04;;;;;;;3.33;2.45;;;;;;;;;;5261567;28;20021;-66
2022/05/03 09:00:36;;;;;;;3.88;2.83;;;;;;;;;;5261696;28;20036;-66
2022/05/03 09:03:08;;;;;;;4.07;2.97;;;;;;;;;;5262328;28;20033;-67
2022/05/03 09:05:39;;;;;;;3.78;2.33;;;;;;;;;;5260758;28;20174;-67
2022/05/03 09:08:10;;;;;;;8.55;3.38;;;;;;;;;;5262598;28;20013;-67
2022/05/03 09:10:42;;;;;;;6.60;3.30;;;;;;;;;;5262227;28;20048;-67
2022/05/03 09:13:18;;;;;;;5.00;3.03;;;;;;;;;;5261511;28;20090;-67
2022/05/03 09:15:51;;;;;;;4.93;2.45;;;;;;;;;;5262999;28;20430;-67
2022/05/03 09:18:28;;;;;;;6.05;2.70;;;;;;;;;;5261739;28;20118;-67
2022/05/03 09:24:01;;;;;;;3.35;2.53;;;;;;;;;;5262682;28;20464;-67
2022/05/03 09:26:33;;;;;;;6.22;2.50;;;;;;;;;;5261689;28;20025;-67
2022/05/03 09:29:06;;;;;;;4.25;2.53;;;;;;;;;;5262781;28;20053;-67
2022/05/03 09:31:39;;;;;;;2.67;2.40;;;;;;;;;;5262327;28;20024;-67
2022/05/03 09:34:19;;;;;;;2.67;2.17;;;;;;;;;;5262025;28;20039;-67
2022/05/03 09:37:05;;;;;;;4.60;2.22;;;;;;;;;;5262725;28;20375;-67
2022/05/03 09:39:43;;;;;;;3.78;2.88;;;;;;;;;;5260695;28;20507;-66
2022/05/03 09:42:19;;;;;;;2.90;2.70;;;;;;;;;;5261396;28;20020;-68
2022/05/03 09:44:50;;;;;;;3.30;2.65;;;;;;;;;;5261692;28;20025;-67
2022/05/03 09:47:22;;;;;;;3.97;2.00;;;;;;;;;;5261130;28;20062;-67
2022/05/03 09:49:54;;;;;;;3.15;2.38;;;;;;;;;;5262289;28;20025;-67
2022/05/03 09:52:30;;;;;;;7.07;2.53;;;;;;;;;;5261514;28;20461;-67
2022/05/03 09:55:08;;;;;;;5.72;2.72;;;;;;;;;;5261647;28;20039;-66
2022/05/03 09:57:40;;;;;;;2.80;2.10;;;;;;;;;;5261786;28;20447;-67
2022/05/03 10:00:12;;;;;;;4.32;2.55;;;;;;;;;;5262438;28;20017;-68
2022/05/03 10:02:43;;;;;;;4.35;2.58;;;;;;;;;;5260788;28;20087;-67
2022/05/03 10:05:15;;;;;;;2.90;2.30;;;;;;;;;;5262314;28;20044;-67
2022/05/03 10:07:48;;;;;;;3.35;3.05;;;;;;;;;;5261045;28;20035;-67
2022/05/03 10:10:19;;;;;;;3.65;3.22;;;;;;;;;;5261695;28;20109;-67
2022/05/03 10:12:51;;;;;;;5.95;3.00;;;;;;;;;;5261651;28;20455;-66
2022/05/03 10:21:12;;;;;;;4.93;2.90;;;;;;;;;;5262455;28;20028;-67
2022/05/03 10:24:00;;;;;;;3.85;2.97;;;;;;;;;;5260527;28;20029;-66
2022/05/03 10:26:50;;;;;;;3.58;1.88;;;;;;;;;;5261218;28;20025;-67
2022/05/03 10:29:22;;;;;;;5.32;2.83;;;;;;;;;;5260442;28;20021;-67
2022/05/03 10:31:55;;;;;;;5.05;2.45;;;;;;;;;;5261594;28;20025;-67
2022/05/03 10:34:41;;;;;;;4.90;3.55;;;;;;;;;;5261162;28;20025;-67
2022/05/03 10:37:13;;;;;;;4.63;3.88;;;;;;;;;;5260432;28;20112;-67
2022/05/03 10:39:47;;;;;;;5.70;3.92;;;;;;;;;;5260759;28;20025;-67
2022/05/03 10:42:22;;;;;;;12.38;3.33;;;;;;;;;;5261072;28;20021;-67
2022/05/03 10:44:53;;;;;;;3.80;3.40;;;;;;;;;;5260790;28;20460;-67
2022/05/03 10:47:43;;;;;;;3.95;2.45;;;;;;;;;;5260888;28;20074;-67
2022/05/03 10:50:17;;;;;;;5.13;3.28;;;;;;;;;;5260594;28;20028;-68
2022/05/03 10:53:14;;;;;;;5.43;3.72;;;;;;;;;;5260765;28;20021;-67
2022/05/03 10:56:04;;;;;;;4.22;3.28;;;;;;;;;;5260193;28;20036;-67
2022/05/03 10:58:36;;;;;;;5.80;2.78;;;;;;;;;;5259665;28;20491;-67
2022/05/03 11:01:08;;;;;;;4.50;3.67;;;;;;;;;;5261045;28;20048;-67
2022/05/03 11:03:52;;;;;;;5.18;3.30;;;;;;;;;;5259885;28;20468;-67
2022/05/03 11:06:23;;;;;;;3.20;2.92;;;;;;;;;;5260616;28;20029;-68
2022/05/03 11:11:38;;;;;;;4.57;3.17;;;;;;;;;;5259779;28;20033;-68
2022/05/03 11:14:21;;;;;;;4.75;2.78;;;;;;;;;;5261135;28;20118;-68
2022/05/03 11:17:05;;;;;;;5.22;3.42;;;;;;;;;;5260864;28;20049;-67
2022/05/03 11:19:37;;;;;;;4.50;2.47;;;;;;;;;;5259228;28;20045;-67
2022/05/03 11:22:09;;;;;;;5.65;2.10;;;;;;;;;;5260601;28;20027;-66
2022/05/03 11:24:41;;;;;;;5.40;3.38;;;;;;;;;;5259401;28;20021;-68
2022/05/03 11:27:14;;;;;;;2.95;2.65;;;;;;;;;;5260890;28;20020;-67
2022/05/03 11:29:46;;;;;;;3.67;2.75;;;;;;;;;;5260196;28;20100;-66
2022/05/03 11:32:27;;;;;;;3.28;2.78;;;;;;;;;;5259773;28;20449;-67
2022/05/03 11:34:58;;;;;;;3.20;1.92;;;;;;;;;;5260832;28;20422;-67
2022/05/03 11:37:30;;;;;;;3.38;2.45;;;;;;;;;;5260318;28;20022;-67
2022/05/03 11:40:05;;;;;;;3.08;2.47;;;;;;;;;;5259811;28;20067;-66
2022/05/03 11:42:37;;;;;;;6.03;4.20;;;;;;;;;;5260042;28;20017;-67
2022/05/03 11:45:09;;;;;;;4.45;4.05;;;;;;;;;;5260675;28;20083;-67
2022/05/03 11:47:42;;;;;;;5.28;4.10;;;;;;;;;;5259561;28;20047;-67
2022/05/03 11:55:58;;;;;;;7.85;3.40;;;;;;;;;;5260826;28;20433;-67
2022/05/03 11:56:00;;;;;;;5.03;3.88;;;;;;;;;;5260087;28;20090;-67
2022/05/03 11:58:33;;;;;;;6.18;4.10;;;;;;;;;;5259674;28;20037;-67
2022/05/03 12:01:12;;;;;;;5.75;3.50;;;;;;;;;;5259985;28;20059;-67
2022/05/03 12:03:44;;;;;;;4.85;3.22;;;;;;;;;;5259909;28;20010;-67
2022/05/03 12:06:16;;;;;;;4.45;3.80;;;;;;;;;;5260578;28;20032;-67
2022/05/03 12:08:48;;;;;;;4.22;2.92;;;;;;;;;;5261321;28;20025;-67
2022/05/03 12:11:24;;;;;;;3.25;2.45;;;;;;;;;;5264197;28;20396;-66
2022/05/03 12:13:55;;;;;;;3.13;1.98;;;;;;;;;;5263499;28;20508;-67
2022/05/03 12:16:27;;;;;;;2.57;1.30;;;;;;;;;;5263696;28;20123;-67
2022/05/03 12:19:00;;;;;;;2.00;1.33;;;;;;;;;;5264701;28;20756;-66
2022/05/03 12:21:42;;;;;;;3.65;1.02;;;;;;;;;;5263077;28;20388;-66
2022/05/03 12:24:13;;;;;;;4.95;1.98;;;;;;;;;;5264452;28;20090;-66
2022/05/03 12:26:44;;;;;;;5.85;1.85;;;;;;;;;;5263587;28;20053;-66
2022/05/03 12:29:15;;;;;;;5.93;2.53;;;;;;;;;;5263604;28;20264;-66
2022/05/03 12:31:47;;;;;;;3.70;2.85;;;;;;;;;;5263644;28;20023;-66
2022/05/03 12:34:22;;;;;;;4.47;3.50;;;;;;;;;;5264011;28;20119;-66
2022/05/03 12:37:01;;;;;;;4.82;2.97;;;;;;;;;;5263016;28;20036;-66
2022/05/03 12:39:36;;;;;;;5.03;3.58;;;;;;;;;;5263536;28;20024;-66
2022/05/03 12:42:11;;;;;;;5.40;4.18;;;;;;;;;;5263189;28;20025;-67
2022/05/03 12:44:49;;;;;;;5.03;3.97;;;;;;;;;;5263197;28;20108;-67
2022/05/03 12:47:21;;;;;;;5.50;3.83;;;;;;;;;;5263318;28;20033;-67
2022/05/03 12:49:53;;;;;;;4.13;3.72;;;;;;;;;;5263004;28;20154;-68
2022/05/03 12:52:24;;;;;;;6.25;3.90;;;;;;;;;;5263007;28;20104;-67
2022/05/03 12:54:56;;;;;;;5.40;3.20;;;;;;;;;;5263726;28;20032;-67
2022/05/03 13:00:17;;;;;;;5.30;3.30;;;;;;;;;;5263803;28;20025;-67
2022/05/03 13:02:49;;;;;;;5.82;4.20;;;;;;;;;;5262988;28;20066;-67
2022/05/03 13:05:20;;;;;;;5.22;3.53;;;;;;;;;;5262310;28;20032;-67
2022/05/03 13:07:51;;;;;;;6.32;4.95;;;;;;;;;;5262999;28;20029;-68
2022/05/03 13:10:22;;;;;;;5.72;4.47;;;;;;;;;;5261889;28;20376;-68
2022/05/03 13:12:53;;;;;;;7.00;3.40;;;;;;;;;;5263138;28;20661;-67
2022/05/03 13:15:24;;;;;;;9.95;4.43;;;;;;;;;;5262605;28;20037;-67
2022/05/03 13:17:56;;;;;;;8.85;3.80;;;;;;;;;;5262460;28;20013;-66
2022/05/03 13:20:27;;;;;;;2.80;2.47;;;;;;;;;;5261882;28;20086;-67
2022/05/03 13:22:58;;;;;;;9.13;2.75;;;;;;;;;;5262924;28;20424;-67
2022/05/03 13:25:29;;;;;;;6.87;2.40;;;;;;;;;;5261863;28;20460;-67
2022/05/03 13:28:01;;;;;;;10.57;1.73;;;;;;;;;;5262993;28;20354;-66
2022/05/03 13:30:33;;;;;;;3.95;2.10;;;;;;;;;;5262269;28;20281;-67
2022/05/03 13:33:04;;;;;;;7.80;2.58;;;;;;;;;;5262095;28;20017;-67
2022/05/03 13:41:15;;;;;;;5.68;4.07;;;;;;;;;;5262835;28;20036;-68
2022/05/03 13:43:47;;;;;;;9.90;5.22;;;;;;;;;;5261704;28;20013;-68
2022/05/03 13:46:18;;;;;;;6.65;5.95;;;;;;;;;;5261647;28;20047;-68
2022/05/03 13:48:50;;;;;;;15.93;4.55;;;;;;;;;;5262111;28;20021;-67
2022/05/03 13:51:21;;;;;;;25.07;7.50;;;;;;;;;;5261587;28;20021;-68
2022/05/03 13:53:52;;;;;;;11.48;6.15;;;;;;;;;;5261657;28;20742;-67
2022/05/03 13:56:24;;;;;;;11.73;6.25;;;;;;;;;;5261601;28;20029;-68
2022/05/03 13:58:55;;;;;;;8.80;7.78;;;;;;;;;;5262279;28;20040;-67
2022/05/03 14:01:26;;;;;;;7.55;6.53;;;;;;;;;;5260831;28;20124;-68
2022/05/03 14:03:59;;;;;;;10.67;6.70;;;;;;;;;;5262126;28;20108;-68
2022/05/03 14:06:30;;;;;;;7.07;6.05;;;;;;;;;;5260520;28;20279;-68
2022/05/03 14:09:02;;;;;;;9.23;6.47;;;;;;;;;;5262109;28;20533;-68
2022/05/03 14:11:33;;;;;;;10.10;6.97;;;;;;;;;;5261400;28;20029;-68
2022/05/03 14:14:04;;;;;;;13.20;6.57;;;;;;;;;;5260997;28;20045;-68
2022/05/03 14:16:35;;;;;;;7.07;5.95;;;;;;;;;;5261246;28;20024;-68
2022/05/03 14:19:06;;;;;;;18.38;7.65;;;;;;;;;;5261976;28;20460;-68
2022/05/03 14:21:39;;;;;;;29.93;20.87;;;;;;;;;;5260805;28;20025;-67
2022/05/03 14:24:11;;;;;;;30.40;21.15;;;;;;;;;;5261874;28;20363;-67
2022/05/03 14:26:42;;;;;;;27.45;22.40;;;;;;;;;;5261297;28;20459;-67
2022/05/03 14:29:13;;;;;;;26.98;20.52;;;;;;;;;;5260959;28;20043;-67
2022/05/03 14:31:44;;;;;;;28.40;21.00;;;;;;;;;;5260097;28;20029;-68
2022/05/03 14:34:15;;;;;;;30.97;23.27;;;;;;;;;;5261879;28;20350;-68
2022/05/03 14:36:46;;;;;;;26.27;21.92;;;;;;;;;;5260227;28;20291;-68
2022/05/03 14:39:17;;;;;;;28.95;21.17;;;;;;;;;;5261606;28;20016;-67
2022/05/03 14:41:49;;;;;;;28.60;21.77;;;;;;;;;;5260207;28;20304;-67
2022/05/03 14:44:20;;;;;;;26.85;21.15;;;;;;;;;;5261083;28;20016;-68
2022/05/03 14:46:52;;;;;;;26.95;21.15;;;;;;;;;;5261143;28;20078;-68
2022/05/03 14:49:23;;;;;;;22.77;19.98;;;;;;;;;;5260099;28;20025;-69
2022/05/03 14:51:54;;;;;;;27.92;20.30;;;;;;;;;;5261360;28;20048;-68
2022/05/03 14:54:25;;;;;;;24.58;19.40;;;;;;;;;;5260562;28;20028;-69
2022/05/03 15:02:54;;;;;;;24.52;20.42;;;;;;;;;;5260877;28;20044;-69
2022/05/03 15:05:32;;;;;;;29.52;22.35;;;;;;;;;;5260869;28;20094;-68
2022/05/03 15:08:04;;;;;;;29.30;23.98;;;;;;;;;;5261224;28;20098;-68
2022/05/03 15:10:36;;;;;;;28.15;22.30;;;;;;;;;;5259714;28;20017;-68
2022/05/03 15:13:08;;;;;;;27.67;21.88;;;;;;;;;;5260563;28;20049;-68
2022/05/03 15:15:40;;;;;;;31.35;22.70;;;;;;;;;;5260305;28;20036;-68
2022/05/03 15:18:11;;;;;;;28.45;22.13;;;;;;;;;;5260097;28;20013;-69
2022/05/03 15:20:42;;;;;;;27.17;22.63;;;;;;;;;;5260401;28;20438;-69
2022/05/03 15:26:03;;;;;;;26.00;21.90;;;;;;;;;;5260105;28;20603;-68
2022/05/03 15:28:35;;;;;;;28.80;22.48;;;;;;;;;;5260247;28;20017;-67
2022/05/03 15:31:07;;;;;;;25.63;20.88;;;;;;;;;;5259856;28;20290;-68
2022/05/03 15:33:38;;;;;;;26.25;19.42;;;;;;;;;;5260021;28;20949;-69
2022/05/03 15:36:09;;;;;;;27.83;21.23;;;;;;;;;;5260343;28;20025;-68
2022/05/03 15:38:40;;;;;;;28.85;21.95;;;;;;;;;;5259081;28;20263;-67
2022/05/03 15:41:12;;;;;;;27.15;19.48;;;;;;;;;;5260202;28;20033;-68
2022/05/03 15:43:43;;;;;;;27.30;19.88;;;;;;;;;;5262216;28;20500;-67
2022/05/03 15:46:14;;;;;;;25.17;19.15;;;;;;;;;;5263978;28;20035;-66
2022/05/03 15:48:46;;;;;;;25.00;19.85;;;;;;;;;;5264095;28;20037;-68
2022/05/03 15:51:17;;;;;;;26.50;19.55;;;;;;;;;;5264978;28;20670;-67
2022/05/03 15:53:48;;;;;;;24.90;18.98;;;;;;;;;;5263524;28;20012;-67
2022/05/03 15:56:20;;;;;;;24.48;18.35;;;;;;;;;;5264253;28;20036;-67
2022/05/03 15:58:51;;;;;;;30.98;19.90;;;;;;;;;;5264426;28;20055;-67
2022/05/03 16:01:22;;;;;;;24.33;18.58;;;;;;;;;;5263771;28;20341;-67
2022/05/03 16:03:53;;;;;;;24.67;18.38;;;;;;;;;;5264813;28;20373;-67
2022/05/03 16:06:24;;;;;;;34.85;25.52;;;;;;;;;;5263406;28;20107;-67
2022/05/03 16:08:55;;;;;;;28.45;19.45;;;;;;;;;;5264708;28;20275;-67
2022/05/03 16:11:27;;;;;;;24.02;17.42;;;;;;;;;;5263676;28;20263;-67